createdAt,value
2017-11-20T00:00:06.555Z,96.17
2017-11-20T00:01:59.211Z,95.88
2017-11-20T00:03:01.038Z,96.17
2017-11-20T00:04:52.549Z,96.08
2017-11-20T00:05:53.671Z,96.08
2017-11-20T00:07:47.296Z,95.98
2017-11-20T00:08:47.224Z,96.45
2017-11-20T00:10:38.012Z,95.79
2017-11-20T00:11:40.815Z,95.60
2017-11-20T00:13:34.329Z,95.50
2017-11-20T00:14:33.601Z,95.69
2017-11-20T00:16:27.031Z,94.65
2017-11-20T00:17:27.931Z,95.07
2017-11-20T00:19:19.885Z,94.89
2017-11-20T00:20:21.477Z,94.89
2017-11-20T00:22:13.938Z,94.98
2017-11-20T00:23:14.067Z,94.89
2017-11-20T00:25:07.426Z,95.31
2017-11-20T00:26:08.601Z,94.84
2017-11-20T00:28:01.314Z,94.93
2017-11-20T00:29:02.160Z,94.93
2017-11-20T00:30:55.679Z,95.22
2017-11-20T00:31:53.680Z,95.31
2017-11-20T00:33:48.096Z,94.98
2017-11-20T00:34:49.231Z,95.27
2017-11-20T00:36:42.822Z,94.84
2017-11-20T00:37:42.784Z,95.17
2017-11-20T00:39:36.935Z,95.12
2017-11-20T00:40:36.378Z,95.27
2017-11-20T00:42:30.467Z,94.60
2017-11-20T00:43:29.892Z,95.22
2017-11-20T00:45:22.890Z,95.07
2017-11-20T00:46:23.480Z,94.93
2017-11-20T00:48:16.102Z,94.93
2017-11-20T00:49:15.040Z,95.65
2017-11-20T00:51:10.569Z,95.27
2017-11-20T00:52:09.624Z,95.07
2017-11-20T00:54:03.212Z,94.70
2017-11-20T00:55:04.113Z,94.98
2017-11-20T00:56:57.679Z,95.17
2017-11-20T00:57:58.622Z,95.17
2017-11-20T00:59:50.266Z,94.89
2017-11-20T01:00:51.284Z,95.03
2017-11-20T01:02:44.829Z,95.84
2017-11-20T01:03:44.823Z,95.07
2017-11-20T01:05:37.431Z,95.03
2017-11-20T01:06:38.352Z,95.07
2017-11-20T01:08:32.562Z,94.98
2017-11-20T01:09:31.904Z,94.98
2017-11-20T01:11:25.460Z,95.07
2017-11-20T01:12:25.512Z,95.36
2017-11-20T01:14:17.893Z,95.17
2017-11-20T01:15:19.027Z,95.27
2017-11-20T01:17:12.569Z,94.70
2017-11-20T01:18:12.573Z,95.07
2017-11-20T01:20:05.252Z,94.98
2017-11-20T01:21:06.124Z,95.27
2017-11-20T01:22:59.585Z,95.17
2017-11-20T01:23:59.709Z,95.27
2017-11-20T01:25:52.351Z,94.98
2017-11-20T01:26:52.449Z,95.07
2017-11-20T01:28:44.883Z,95.84
2017-11-20T01:29:46.789Z,95.46
2017-11-20T01:31:39.404Z,95.88
2017-11-20T01:32:40.396Z,95.55
2017-11-20T01:34:33.897Z,95.41
2017-11-20T01:35:33.935Z,95.60
2017-11-20T01:37:24.685Z,95.65
2017-11-20T01:38:26.576Z,95.55
2017-11-20T01:40:20.163Z,95.55
2017-11-20T01:41:20.598Z,95.74
2017-11-20T01:43:15.171Z,95.79
2017-11-20T01:44:14.561Z,95.12
2017-11-20T01:46:08.026Z,95.60
2017-11-20T01:47:08.122Z,95.60
2017-11-20T01:49:00.822Z,95.50
2017-11-20T01:50:01.762Z,95.50
2017-11-20T01:51:55.153Z,95.41
2017-11-20T01:52:55.296Z,96.26
2017-11-20T01:54:47.932Z,96.45
2017-11-20T01:55:48.808Z,96.26
2017-11-20T01:57:42.248Z,96.45
2017-11-20T01:58:42.406Z,96.45
2017-11-20T02:00:34.603Z,96.45
2017-11-20T02:01:35.062Z,96.36
2017-11-20T02:03:28.609Z,96.36
2017-11-20T02:04:29.404Z,96.36
2017-11-20T02:06:22.783Z,96.26
2017-11-20T02:07:23.052Z,96.17
2017-11-20T02:09:15.551Z,96.08
2017-11-20T02:10:15.813Z,96.36
2017-11-20T02:12:10.177Z,96.26
2017-11-20T02:13:10.187Z,96.08
2017-11-20T02:15:02.812Z,96.17
2017-11-20T02:16:03.702Z,96.26
2017-11-20T02:17:57.265Z,95.60
2017-11-20T02:18:57.347Z,95.41
2017-11-20T02:20:49.912Z,96.36
2017-11-20T02:21:49.958Z,96.45
2017-11-20T02:23:42.245Z,95.69
2017-11-20T02:24:44.409Z,95.79
2017-11-20T02:26:36.969Z,95.69
2017-11-20T02:27:37.972Z,95.60
2017-11-20T02:29:31.336Z,95.69
2017-11-20T02:30:31.485Z,95.41
2017-11-20T02:32:24.166Z,95.50
2017-11-20T02:33:25.039Z,95.41
2017-11-20T02:35:17.556Z,95.79
2017-11-20T02:36:18.650Z,95.60
2017-11-20T02:38:11.343Z,95.69
2017-11-20T02:39:12.206Z,95.41
2017-11-20T02:41:02.873Z,95.31
2017-11-20T02:42:05.790Z,95.22
2017-11-20T02:43:58.417Z,94.93
2017-11-20T02:44:59.295Z,95.03
2017-11-20T02:46:52.845Z,95.03
2017-11-20T02:47:53.762Z,95.79
2017-11-20T02:49:45.276Z,94.93
2017-11-20T02:50:46.382Z,95.03
2017-11-20T02:52:39.869Z,95.60
2017-11-20T02:53:39.967Z,95.88
2017-11-20T02:55:34.119Z,95.60
2017-11-20T02:56:33.503Z,95.69
2017-11-20T02:58:24.163Z,95.50
2017-11-20T02:59:27.129Z,95.50
2017-11-20T03:01:19.773Z,95.60
2017-11-20T03:02:20.644Z,95.69
2017-11-20T03:04:14.168Z,95.50
2017-11-20T03:05:14.156Z,95.60
2017-11-20T03:07:08.332Z,95.60
2017-11-20T03:08:07.756Z,95.69
2017-11-20T03:10:01.304Z,95.60
2017-11-20T03:11:01.274Z,95.50
2017-11-20T03:12:53.919Z,95.69
2017-11-20T03:13:54.832Z,95.41
2017-11-20T03:15:45.560Z,95.41
2017-11-20T03:16:48.428Z,95.79
2017-11-20T03:18:40.970Z,95.60
2017-11-20T03:19:41.015Z,95.50
2017-11-20T03:21:35.546Z,95.69
2017-11-20T03:22:35.549Z,95.60
2017-11-20T03:24:27.919Z,95.60
2017-11-20T03:25:29.059Z,96.17
2017-11-20T03:27:22.647Z,95.60
2017-11-20T03:28:20.726Z,95.50
2017-11-20T03:30:15.323Z,95.69
2017-11-20T03:31:16.253Z,95.41
2017-11-20T03:33:08.519Z,95.60
2017-11-20T03:34:09.786Z,95.88
2017-11-20T03:36:02.144Z,95.41
2017-11-20T03:37:03.291Z,95.60
2017-11-20T03:38:56.699Z,95.60
2017-11-20T03:39:56.839Z,95.79
2017-11-20T03:41:49.550Z,95.79
2017-11-20T03:42:50.434Z,95.50
2017-11-20T03:44:43.244Z,95.69
2017-11-20T03:45:42.559Z,95.79
2017-11-20T03:47:36.497Z,95.69
2017-11-20T03:48:37.514Z,95.60
2017-11-20T03:50:31.073Z,95.79
2017-11-20T03:51:31.075Z,95.50
2017-11-20T03:53:23.752Z,95.03
2017-11-20T03:54:24.623Z,95.31
2017-11-20T03:56:18.034Z,94.56
2017-11-20T03:57:18.173Z,95.03
2017-11-20T03:59:10.863Z,94.74
2017-11-20T04:00:11.731Z,94.74
2017-11-20T04:02:05.308Z,94.18
2017-11-20T04:03:02.629Z,94.65
2017-11-20T04:04:57.772Z,95.03
2017-11-20T04:05:58.841Z,94.08
2017-11-20T04:07:52.320Z,94.46
2017-11-20T04:08:52.407Z,93.99
2017-11-20T04:10:45.093Z,94.08
2017-11-20T04:11:45.955Z,93.89
2017-11-20T04:13:39.525Z,94.56
2017-11-20T04:14:39.601Z,94.56
2017-11-20T04:16:32.151Z,95.12
2017-11-20T04:17:33.080Z,95.41
2017-11-20T04:19:26.674Z,95.69
2017-11-20T04:20:23.959Z,95.50
2017-11-20T04:22:19.290Z,96.36
2017-11-20T04:23:20.214Z,96.22
2017-11-20T04:25:12.906Z,96.59
2017-11-20T04:26:13.744Z,96.41
2017-11-20T04:28:07.228Z,96.31
2017-11-20T04:29:06.565Z,96.41
2017-11-20T04:30:59.798Z,96.50
2017-11-20T04:32:00.557Z,96.41
2017-11-20T04:33:53.322Z,96.88
2017-11-20T04:34:54.417Z,96.50
2017-11-20T04:36:46.837Z,96.50
2017-11-20T04:37:47.101Z,96.50
2017-11-20T04:39:41.468Z,96.31
2017-11-20T04:40:41.565Z,96.41
2017-11-20T04:42:35.674Z,96.69
2017-11-20T04:43:35.081Z,96.31
2017-11-20T04:45:28.665Z,96.59
2017-11-20T04:46:28.644Z,96.03
2017-11-20T04:48:21.140Z,95.45
2017-11-20T04:49:22.192Z,96.22
2017-11-20T04:51:15.787Z,96.31
2017-11-20T04:52:16.673Z,96.03
2017-11-20T04:54:08.410Z,95.93
2017-11-20T04:55:09.299Z,96.22
2017-11-20T04:57:01.690Z,95.36
2017-11-20T04:58:02.894Z,95.55
2017-11-20T04:59:55.498Z,94.89
2017-11-20T05:00:56.414Z,95.45
2017-11-20T05:02:47.722Z,94.89
2017-11-20T05:03:49.973Z,94.89
2017-11-20T05:05:42.629Z,94.51
2017-11-20T05:06:43.549Z,94.60
2017-11-20T05:08:36.965Z,94.51
2017-11-20T05:09:37.085Z,94.79
2017-11-20T05:11:27.848Z,93.94
2017-11-20T05:12:28.638Z,94.70
2017-11-20T05:14:23.211Z,94.23
2017-11-20T05:15:23.376Z,93.84
2017-11-20T05:17:17.795Z,93.56
2017-11-20T05:18:17.753Z,94.23
2017-11-20T05:20:10.297Z,93.65
2017-11-20T05:21:11.305Z,93.84
2017-11-20T05:23:04.867Z,93.84
2017-11-20T05:24:04.860Z,93.37
2017-11-20T05:25:57.509Z,93.65
2017-11-20T05:26:58.424Z,93.37
2017-11-20T05:28:52.007Z,93.70
2017-11-20T05:29:52.913Z,93.61
2017-11-20T05:31:46.127Z,93.08
2017-11-20T05:32:45.581Z,93.23
2017-11-20T05:34:39.077Z,92.80
2017-11-20T05:35:39.125Z,92.90
2017-11-20T05:37:33.232Z,92.66
2017-11-20T05:38:32.640Z,92.94
2017-11-20T05:40:26.126Z,93.13
2017-11-20T05:41:26.244Z,92.61
2017-11-20T05:43:18.973Z,92.66
2017-11-20T05:44:19.754Z,92.57
2017-11-20T05:46:13.351Z,93.13
2017-11-20T05:47:11.305Z,93.13
2017-11-20T05:49:05.693Z,92.76
2017-11-20T05:50:05.891Z,92.94
2017-11-20T05:52:00.540Z,92.38
2017-11-20T05:53:00.425Z,92.38
2017-11-20T05:54:53.055Z,92.28
2017-11-20T05:55:54.022Z,92.09
2017-11-20T05:57:46.651Z,92.47
2017-11-20T05:58:47.546Z,92.38
2017-11-20T06:00:40.857Z,92.09
2017-11-20T06:01:41.125Z,91.80
2017-11-20T06:03:35.229Z,92.18
2017-11-20T06:04:34.647Z,92.38
2017-11-20T06:06:28.060Z,92.28
2017-11-20T06:07:28.247Z,92.18
2017-11-20T06:09:22.343Z,91.99
2017-11-20T06:10:21.796Z,91.90
2017-11-20T06:12:14.283Z,92.66
2017-11-20T06:13:15.352Z,92.18
2017-11-20T06:15:07.999Z,91.71
2017-11-20T06:16:08.914Z,91.24
2017-11-20T06:18:02.441Z,91.99
2017-11-20T06:19:02.366Z,92.18
2017-11-20T06:20:54.913Z,92.14
2017-11-20T06:21:55.985Z,91.99
2017-11-20T06:23:49.535Z,92.04
2017-11-20T06:24:49.601Z,91.99
2017-11-20T06:26:42.218Z,92.33
2017-11-20T06:27:43.103Z,92.14
2017-11-20T06:29:35.655Z,91.57
2017-11-20T06:30:36.669Z,92.33
2017-11-20T06:32:29.272Z,91.71
2017-11-20T06:33:30.208Z,91.90
2017-11-20T06:35:22.851Z,91.61
2017-11-20T06:36:23.797Z,91.61
2017-11-20T06:38:17.231Z,91.24
2017-11-20T06:39:17.334Z,92.09
2017-11-20T06:41:09.943Z,91.71
2017-11-20T06:42:10.886Z,91.52
2017-11-20T06:44:03.525Z,91.33
2017-11-20T06:45:04.469Z,91.52
2017-11-20T06:46:58.043Z,90.86
2017-11-20T06:47:58.061Z,91.28
2017-11-20T07:08:13.161Z,90.38
2017-11-20T07:09:14.865Z,90.48
2017-11-20T07:11:08.307Z,90.76
2017-11-20T07:12:08.430Z,90.86
2017-11-20T07:14:01.140Z,91.05
2017-11-20T07:15:01.995Z,91.05
2017-11-20T07:16:55.570Z,90.95
2017-11-20T07:17:55.541Z,91.05
2017-11-20T07:19:47.960Z,91.05
2017-11-20T07:20:49.115Z,90.76
2017-11-20T07:22:42.689Z,91.05
2017-11-20T07:23:42.683Z,90.95
2017-11-20T07:25:33.384Z,91.05
2017-11-20T07:26:36.218Z,90.38
2017-11-20T07:49:57.303Z,91.05
2017-11-20T07:50:58.302Z,91.38
2017-11-20T07:52:51.888Z,91.47
2017-11-20T07:53:50.002Z,92.33
2017-11-20T07:55:44.503Z,91.57
2017-11-20T07:56:45.451Z,91.57
2017-11-20T07:58:37.969Z,92.42
2017-11-20T07:59:36.987Z,93.65
2017-11-20T08:01:32.533Z,93.27
2017-11-20T08:02:32.531Z,93.18
2017-11-20T08:04:25.144Z,92.71
2017-11-20T08:05:26.095Z,92.52
2017-11-20T08:07:19.653Z,93.46
2017-11-20T08:08:19.717Z,93.08
2017-11-20T08:10:12.335Z,93.46
2017-11-20T08:11:13.241Z,93.94
2017-11-20T08:13:06.765Z,93.75
2017-11-20T08:14:06.809Z,94.79
2017-11-20T08:15:59.476Z,94.70
2017-11-20T08:17:00.334Z,93.75
2017-11-20T08:18:53.803Z,94.79
2017-11-20T08:19:53.913Z,94.70
2017-11-20T08:21:47.401Z,94.98
2017-11-20T08:22:47.449Z,94.70
2017-11-20T08:24:40.084Z,94.51
2017-11-20T08:25:40.997Z,95.07
2017-11-20T08:27:34.624Z,94.79
2017-11-20T08:28:34.586Z,95.55
2017-11-20T08:30:26.989Z,95.55
2017-11-20T08:31:28.102Z,95.55
2017-11-20T08:33:21.650Z,95.55
2017-11-20T08:34:21.819Z,95.36
2017-11-20T08:36:14.368Z,94.89
2017-11-20T08:37:15.210Z,95.36
2017-11-20T08:39:08.665Z,94.98
2017-11-20T08:40:08.789Z,95.26
2017-11-20T08:42:00.132Z,95.55
2017-11-20T08:43:02.322Z,95.26
2017-11-20T08:44:55.918Z,95.45
2017-11-20T08:45:55.922Z,95.65
2017-11-20T08:47:48.543Z,95.55
2017-11-20T08:48:49.453Z,96.12
2017-11-20T08:50:42.953Z,95.17
2017-11-20T08:51:43.018Z,95.07
2017-11-20T08:53:35.509Z,95.55
2017-11-20T08:54:36.614Z,95.45
2017-11-20T08:56:30.114Z,96.12
2017-11-20T08:57:30.109Z,95.36
2017-11-20T08:59:22.653Z,95.55
2017-11-20T09:00:23.721Z,96.12
2017-11-20T09:02:17.202Z,95.45
2017-11-20T09:03:17.275Z,96.12
2017-11-20T09:05:09.675Z,95.26
2017-11-20T09:06:10.877Z,96.31
2017-11-20T09:08:04.405Z,95.36
2017-11-20T09:09:04.348Z,95.26
2017-11-20T09:10:56.977Z,95.26
2017-11-20T09:11:57.917Z,95.36
2017-11-20T09:13:51.457Z,95.36
2017-11-20T09:14:51.505Z,95.55
2017-11-20T09:16:44.099Z,95.55
2017-11-20T09:17:45.036Z,95.36
2017-11-20T09:19:38.524Z,95.45
2017-11-20T09:20:38.614Z,95.74
2017-11-20T09:22:32.710Z,96.03
2017-11-20T09:23:32.130Z,95.36
2017-11-20T09:25:25.677Z,96.22
2017-11-20T09:26:25.204Z,95.55
2017-11-20T09:28:18.192Z,95.55
2017-11-20T09:29:19.285Z,94.98
2017-11-20T09:31:12.800Z,94.98
2017-11-20T09:32:12.820Z,94.70
2017-11-20T09:34:05.200Z,94.89
2017-11-20T09:35:06.371Z,94.70
2017-11-20T09:36:57.665Z,95.36
2017-11-20T09:37:59.906Z,94.79
2017-11-20T09:39:52.762Z,95.45
2017-11-20T09:40:53.520Z,95.17
2017-11-20T09:42:46.168Z,94.70
2017-11-20T09:43:47.025Z,94.42
2017-11-20T09:45:40.615Z,95.36
2017-11-20T09:46:40.625Z,95.93
2017-11-20T09:48:33.744Z,95.26
2017-11-20T09:49:34.173Z,95.55
2017-11-20T09:51:27.572Z,94.79
2017-11-20T09:52:27.119Z,95.07
2017-11-20T09:54:20.150Z,95.55
2017-11-20T09:55:21.259Z,95.17
2017-11-20T09:57:14.812Z,95.17
2017-11-20T09:58:14.820Z,94.98
2017-11-20T10:00:07.343Z,96.41
2017-11-20T10:01:08.368Z,95.55
2017-11-20T10:03:00.177Z,96.03
2017-11-20T10:04:01.923Z,95.55
2017-11-20T10:05:54.836Z,96.41
2017-11-20T10:06:55.634Z,95.36
2017-11-20T10:08:46.842Z,95.55
2017-11-20T10:09:49.075Z,95.26
2017-11-20T10:11:41.701Z,95.17
2017-11-20T10:12:42.796Z,95.65
2017-11-20T10:14:36.142Z,95.55
2017-11-20T10:15:36.181Z,95.36
2017-11-20T10:17:28.823Z,96.03
2017-11-20T10:18:29.620Z,95.55
2017-11-20T10:20:23.257Z,94.89
2017-11-20T10:21:23.273Z,95.84
2017-11-20T10:23:16.405Z,96.12
2017-11-20T10:24:16.808Z,95.36
2017-11-20T10:26:09.381Z,96.22
2017-11-20T10:27:10.377Z,96.41
2017-11-20T10:29:02.810Z,96.59
2017-11-20T10:30:03.960Z,95.45
2017-11-20T10:31:57.523Z,95.93
2017-11-20T10:32:57.465Z,95.17
2017-11-20T10:34:50.173Z,95.55
2017-11-20T10:35:51.055Z,94.98
2017-11-20T10:37:44.671Z,95.45
2017-11-20T10:38:44.167Z,95.36
2017-11-20T10:40:37.145Z,95.31
2017-11-20T10:41:38.157Z,95.17
2017-11-20T10:43:28.800Z,94.79
2017-11-20T10:44:31.753Z,95.55
2017-11-20T10:46:25.204Z,95.55
2017-11-20T10:47:25.271Z,96.12
2017-11-20T10:49:17.929Z,95.55
2017-11-20T10:50:18.862Z,95.45
2017-11-20T10:52:11.341Z,95.45
2017-11-20T10:53:12.371Z,94.89
2017-11-20T10:55:05.936Z,96.12
2017-11-20T10:56:05.967Z,95.55
2017-11-20T10:57:58.569Z,94.89
2017-11-20T10:58:59.491Z,95.36
2017-11-20T11:00:50.173Z,95.36
2017-11-20T11:01:53.053Z,94.60
2017-11-20T11:03:45.685Z,95.45
2017-11-20T11:04:46.632Z,95.36
2017-11-20T11:06:40.169Z,95.55
2017-11-20T11:07:40.165Z,95.65
2017-11-20T11:09:32.577Z,95.55
2017-11-20T11:10:33.704Z,95.36
2017-11-20T11:13:56.869Z,95.07
2017-11-20T11:14:59.233Z,94.98
2017-11-20T11:16:51.902Z,94.23
2017-11-20T11:17:52.840Z,94.60
2017-11-20T11:19:46.402Z,94.42
2017-11-20T11:20:43.704Z,93.46
2017-11-20T11:22:38.919Z,94.70
2017-11-20T11:23:39.898Z,95.26
2017-11-20T11:25:33.471Z,94.89
2017-11-20T11:26:33.432Z,95.07
2017-11-20T11:28:26.031Z,95.55
2017-11-20T11:29:27.036Z,95.36
2017-11-20T11:31:23.097Z,96.41
2017-11-20T11:32:20.529Z,96.41
2017-11-20T11:34:13.209Z,96.12
2017-11-20T11:35:14.126Z,96.22
2017-11-20T11:37:07.086Z,95.41
2017-11-20T11:38:04.989Z,96.41
2017-11-20T11:40:01.205Z,96.03
2017-11-20T11:41:01.100Z,95.55
2017-11-20T11:42:54.917Z,95.17
2017-11-20T11:43:53.064Z,95.45
2017-11-20T11:45:47.388Z,95.55
2017-11-20T11:46:48.386Z,95.55
2017-11-20T11:48:41.037Z,96.59
2017-11-20T11:49:41.867Z,96.59
2017-11-20T11:51:34.385Z,96.22
2017-11-20T11:52:35.437Z,96.69
2017-11-20T11:54:31.650Z,96.41
2017-11-20T11:55:27.133Z,96.41
2017-11-20T11:57:21.663Z,96.78
2017-11-20T11:58:22.604Z,96.50
2017-11-20T12:00:14.264Z,96.22
2017-11-20T12:01:16.135Z,95.65
2017-11-20T12:03:10.247Z,96.12
2017-11-20T12:04:09.665Z,96.50
2017-11-20T12:06:03.260Z,96.59
2017-11-20T12:07:03.243Z,96.69
2017-11-20T12:08:55.707Z,96.41
2017-11-20T12:09:56.774Z,96.41
2017-11-20T12:11:50.354Z,96.50
2017-11-20T12:12:50.389Z,96.41
2017-11-20T12:14:42.867Z,96.12
2017-11-20T12:16:59.582Z,96.22
2017-11-20T12:17:54.643Z,96.31
2017-11-20T12:19:49.907Z,96.50
2017-11-20T12:20:50.863Z,96.22
2017-11-20T12:22:43.645Z,96.41
2017-11-20T12:23:43.817Z,96.22
2017-11-20T12:25:36.904Z,96.41
2017-11-20T12:26:38.062Z,96.22
2017-11-20T12:28:29.654Z,96.41
2017-11-20T12:29:31.587Z,96.31
2017-11-20T12:31:24.233Z,96.59
2017-11-20T12:32:25.099Z,96.59
2017-11-20T12:34:36.879Z,96.59
2017-11-20T12:35:16.044Z,96.69
2017-11-20T12:37:12.829Z,96.59
2017-11-20T12:38:12.269Z,96.59
2017-11-20T12:40:05.807Z,96.97
2017-11-20T12:41:05.855Z,96.97
2017-11-20T12:42:59.189Z,96.69
2017-11-20T12:43:59.474Z,96.59
2017-11-20T12:45:51.733Z,96.59
2017-11-20T12:46:52.888Z,96.59
2017-11-20T12:48:46.462Z,96.31
2017-11-20T12:49:46.476Z,96.41
2017-11-20T12:51:39.056Z,96.78
2017-11-20T12:52:39.996Z,96.41
2017-11-20T12:54:33.572Z,96.12
2017-11-20T12:55:33.581Z,96.22
2017-11-20T12:57:26.328Z,96.59
2017-11-20T12:58:27.124Z,96.12
2017-11-20T13:00:19.110Z,96.31
2017-11-20T13:01:20.653Z,95.36
2017-11-20T13:03:13.094Z,96.22
2017-11-20T13:04:14.326Z,96.41
2017-11-20T13:06:07.780Z,96.31
2017-11-20T13:07:07.788Z,96.69
2017-11-20T13:09:00.733Z,97.45
2017-11-20T13:10:01.334Z,96.22
2017-11-20T13:11:55.008Z,96.12
2017-11-20T13:12:53.791Z,96.12
2017-11-20T13:14:47.397Z,96.41
2017-11-20T13:15:48.501Z,96.22
2017-11-20T13:17:41.834Z,96.50
2017-11-20T13:18:42.150Z,96.59
2017-11-20T13:20:45.685Z,96.97
2017-11-20T13:22:48.180Z,96.41
2017-11-20T13:23:49.031Z,96.59
2017-11-20T13:25:42.537Z,96.78
2017-11-20T13:27:55.087Z,96.64
2017-11-20T13:28:56.008Z,96.64
2017-11-20T13:30:49.567Z,96.59
2017-11-20T13:31:49.540Z,96.83
2017-11-20T13:33:42.220Z,96.45
2017-11-20T13:34:43.089Z,95.98
2017-11-20T13:36:36.575Z,96.36
2017-11-20T13:37:36.640Z,96.64
2017-11-20T13:39:30.824Z,96.45
2017-11-20T13:40:30.233Z,96.55
2017-11-20T13:42:23.749Z,96.64
2017-11-20T13:43:22.013Z,96.64
2017-11-20T13:45:16.439Z,97.40
2017-11-20T13:46:16.441Z,96.92
2017-11-20T13:48:10.817Z,96.92
2017-11-20T13:49:10.857Z,96.73
2017-11-20T13:51:03.550Z,97.31
2017-11-20T13:52:05.317Z,97.02
2017-11-20T13:53:55.911Z,96.73
2017-11-20T13:54:57.978Z,97.31
2017-11-20T13:56:50.651Z,97.40
2017-11-20T13:57:51.352Z,97.02
2017-11-20T13:59:44.182Z,96.73
2017-11-20T14:01:55.616Z,97.40
2017-11-20T14:02:58.553Z,97.31
2017-11-20T14:04:51.137Z,96.83
2017-11-20T14:05:52.051Z,97.31
2017-11-20T14:07:45.619Z,97.12
2017-11-20T14:08:44.801Z,96.83
2017-11-20T14:10:38.299Z,97.21
2017-11-20T14:14:44.675Z,97.88
2017-11-20T14:15:24.560Z,97.97
2017-11-20T14:17:40.822Z,96.83
2017-11-20T14:18:18.098Z,96.73
2017-11-20T14:20:11.638Z,97.50
2017-11-20T14:22:23.960Z,97.31
2017-11-20T14:23:25.047Z,97.88
2017-11-20T14:25:17.679Z,97.88
2017-11-20T14:26:16.978Z,97.31
2017-11-20T14:28:12.254Z,97.59
2017-11-20T14:29:12.199Z,96.83
2017-11-20T14:31:02.928Z,97.59
2017-11-20T14:32:05.780Z,97.31
2017-11-20T14:33:58.384Z,97.50
2017-11-20T14:34:59.455Z,97.21
2017-11-20T14:36:50.967Z,97.50
2017-11-20T14:37:50.236Z,97.50
2017-11-20T14:39:47.026Z,97.21
2017-11-20T14:41:59.859Z,96.97
2017-11-20T14:42:59.837Z,97.17
2017-11-20T14:44:52.425Z,97.07
2017-11-20T14:47:05.813Z,96.88
2017-11-20T14:48:06.791Z,96.64
2017-11-20T14:49:59.465Z,97.17
2017-11-20T14:51:00.360Z,97.07
2017-11-20T14:52:51.665Z,97.26
2017-11-20T14:53:53.820Z,97.17
2017-11-20T14:55:47.375Z,97.07
2017-11-20T14:56:47.465Z,96.88
2017-11-20T14:58:39.082Z,96.50
2017-11-20T14:59:41.053Z,97.36
2017-11-20T15:01:33.711Z,97.64
2017-11-20T15:02:34.618Z,97.26
2017-11-20T15:04:28.206Z,97.36
2017-11-20T15:05:28.170Z,97.45
2017-11-20T15:07:20.815Z,97.36
2017-11-20T15:08:21.723Z,97.07
2017-11-20T15:10:12.424Z,97.45
2017-11-20T15:11:15.327Z,97.17
2017-11-20T15:13:06.977Z,97.64
2017-11-20T15:14:08.868Z,97.17
2017-11-20T15:16:01.537Z,97.07
2017-11-20T15:17:01.536Z,96.88
2017-11-20T15:18:55.089Z,97.40
2017-11-20T15:19:56.043Z,97.74
2017-11-20T15:21:49.589Z,97.55
2017-11-20T15:22:49.548Z,97.21
2017-11-20T15:24:42.255Z,97.45
2017-11-20T15:25:43.153Z,97.17
2017-11-20T15:27:36.701Z,97.45
2017-11-20T15:28:36.701Z,97.36
2017-11-20T15:30:29.341Z,97.31
2017-11-20T15:31:29.276Z,97.92
2017-11-20T15:33:23.814Z,97.69
2017-11-20T15:34:23.818Z,97.88
2017-11-20T15:36:17.955Z,97.64
2017-11-20T15:37:17.356Z,97.78
2017-11-20T15:39:10.012Z,97.92
2017-11-20T15:40:09.493Z,97.74
2017-11-20T15:42:04.517Z,97.40
2017-11-20T15:43:03.870Z,97.83
2017-11-20T15:44:57.216Z,97.64
2017-11-20T15:45:58.170Z,97.69
2017-11-20T15:47:54.972Z,97.64
2017-11-20T15:48:51.047Z,97.74
2017-11-20T15:50:44.099Z,97.45
2017-11-20T15:51:45.187Z,97.64
2017-11-20T15:53:38.714Z,97.74
2017-11-20T15:54:38.775Z,97.17
2017-11-20T15:56:31.326Z,97.83
2017-11-20T15:57:29.608Z,97.64
2017-11-20T15:59:26.790Z,97.83
2017-11-20T16:00:25.877Z,97.36
2017-11-20T16:02:19.817Z,97.74
2017-11-20T16:03:19.403Z,97.74
2017-11-20T16:05:13.573Z,97.26
2017-11-20T16:06:12.309Z,97.55
2017-11-20T16:08:05.609Z,97.55
2017-11-20T16:09:06.496Z,97.64
2017-11-20T16:11:19.025Z,97.74
2017-11-20T16:12:51.333Z,97.45
2017-11-20T16:13:52.538Z,97.74
2017-11-20T16:15:46.162Z,97.83
2017-11-20T16:16:46.973Z,97.83
2017-11-20T16:18:40.488Z,97.45
2017-11-20T16:19:40.492Z,97.83
2017-11-20T16:21:35.133Z,97.26
2017-11-20T16:22:34.087Z,97.07
2017-11-20T16:24:31.277Z,97.45
2017-11-20T16:25:27.604Z,97.45
2017-11-20T16:27:20.942Z,97.45
2017-11-20T16:28:21.204Z,97.26
2017-11-20T16:30:13.656Z,97.74
2017-11-20T16:31:14.748Z,97.55
2017-11-20T16:33:07.419Z,97.45
2017-11-20T16:34:08.314Z,97.45
2017-11-20T16:36:00.937Z,97.07
2017-11-20T16:37:01.208Z,97.17
2017-11-20T16:38:55.459Z,97.45
2017-11-20T16:39:55.435Z,97.07
2017-11-20T16:41:47.795Z,97.07
2017-11-20T16:42:48.947Z,97.17
2017-11-20T16:44:42.537Z,97.26
2017-11-20T16:45:42.494Z,97.92
2017-11-20T16:47:33.284Z,97.07
2017-11-20T16:48:37.379Z,97.26
2017-11-20T16:50:29.726Z,97.07
2017-11-20T16:52:42.881Z,97.64
2017-11-20T16:53:43.227Z,97.55
2017-11-20T16:55:35.400Z,97.26
2017-11-20T16:57:49.953Z,97.17
2017-11-20T16:58:49.977Z,96.97
2017-11-20T17:00:42.802Z,96.88
2017-11-20T17:01:43.530Z,97.55
2017-11-20T17:03:37.109Z,96.69
2017-11-20T17:04:37.107Z,97.26
2017-11-20T17:06:29.688Z,96.88
2017-11-20T17:07:29.851Z,97.26
2017-11-20T17:09:24.153Z,97.07
2017-11-20T17:10:24.202Z,97.26
2017-11-20T17:12:16.901Z,97.07
2017-11-20T17:13:17.763Z,97.26
2017-11-20T17:15:11.362Z,97.74
2017-11-20T17:16:09.778Z,97.26
2017-11-20T17:18:03.985Z,97.83
2017-11-20T17:19:04.868Z,97.55
2017-11-20T17:20:58.368Z,96.97
2017-11-20T17:21:58.469Z,97.55
2017-11-20T17:23:51.190Z,97.69
2017-11-20T17:24:49.315Z,97.60
2017-11-20T17:26:45.474Z,97.69
2017-11-20T17:27:45.577Z,97.50
2017-11-20T17:29:39.108Z,97.41
2017-11-20T17:30:39.164Z,97.41
2017-11-20T17:32:31.584Z,97.50
2017-11-20T17:34:43.155Z,97.50
2017-11-20T17:35:46.093Z,97.78
2017-11-20T17:40:44.137Z,97.22
2017-11-20T17:41:43.501Z,97.41
2017-11-20T17:43:36.993Z,97.41
2017-11-20T17:44:37.104Z,97.41
2017-11-20T17:46:29.535Z,97.02
2017-11-20T17:47:29.261Z,97.31
2017-11-20T17:49:24.202Z,97.41
2017-11-20T17:50:24.176Z,97.31
2017-11-20T17:52:18.394Z,97.41
2017-11-20T17:53:18.648Z,97.31
2017-11-20T17:55:11.340Z,97.31
2017-11-20T17:56:11.434Z,97.12
2017-11-20T17:58:04.751Z,97.02
2017-11-20T17:59:03.235Z,97.41
2017-11-20T18:00:58.406Z,97.41
2017-11-20T18:01:58.428Z,97.31
2017-11-20T18:03:51.058Z,97.31
2017-11-20T18:04:49.361Z,97.12
2017-11-20T18:06:45.359Z,97.12
2017-11-20T18:07:46.465Z,97.02
2017-11-20T18:09:38.184Z,97.45
2017-11-20T18:10:37.349Z,97.78
2017-11-20T18:12:31.821Z,97.36
2017-11-20T18:13:32.643Z,97.45
2017-11-20T18:15:25.300Z,97.17
2017-11-20T18:16:26.192Z,97.36
2017-11-20T18:18:20.339Z,97.17
2017-11-20T18:19:20.105Z,97.27
2017-11-20T18:21:12.307Z,97.55
2017-11-20T18:22:11.597Z,97.74
2017-11-20T18:24:06.782Z,97.45
2017-11-20T18:25:06.855Z,97.07
2017-11-20T18:26:59.445Z,97.45
2017-11-20T18:28:00.452Z,97.74
2017-11-20T18:29:53.955Z,97.17
2017-11-20T18:30:53.966Z,97.17
2017-11-20T18:32:46.608Z,97.27
2017-11-20T18:34:59.952Z,96.88
2017-11-20T18:36:01.089Z,97.07
2017-11-20T18:37:53.656Z,97.17
2017-11-20T18:38:54.490Z,96.88
2017-11-20T18:40:48.643Z,97.27
2017-11-20T18:41:47.990Z,97.36
2017-11-20T18:43:41.600Z,97.27
2017-11-20T18:44:39.612Z,97.45
2017-11-20T18:46:34.286Z,97.07
2017-11-20T18:47:35.144Z,97.36
2017-11-20T18:49:28.699Z,96.98
2017-11-20T18:50:28.753Z,97.55
2017-11-20T18:52:21.440Z,97.55
2017-11-20T18:53:22.436Z,97.74
2017-11-20T18:55:15.826Z,97.12
2017-11-20T18:56:15.824Z,97.03
2017-11-20T18:58:08.477Z,97.88
2017-11-20T18:59:09.391Z,97.12
2017-11-20T19:01:02.229Z,97.78
2017-11-20T19:02:02.946Z,97.97
2017-11-20T19:03:55.635Z,97.69
2017-11-20T19:04:54.566Z,97.69
2017-11-20T19:06:50.984Z,97.69
2017-11-20T19:07:50.069Z,97.88
2017-11-20T19:09:41.088Z,97.41
2017-11-20T19:10:41.923Z,97.88
2017-11-20T19:12:37.169Z,97.31
2017-11-20T19:13:37.160Z,97.41
2017-11-20T19:15:29.804Z,97.41
2017-11-20T19:16:31.614Z,97.03
2017-11-20T19:18:24.321Z,97.41
2017-11-20T19:19:24.268Z,97.78
2017-11-20T19:21:16.977Z,97.50
2017-11-20T19:22:17.825Z,97.22
2017-11-20T19:24:11.124Z,97.69
2017-11-20T19:25:11.455Z,97.45
2017-11-20T19:27:02.738Z,97.22
2017-11-20T19:28:05.010Z,97.55
2017-11-20T19:29:57.652Z,97.45
2017-11-20T19:30:58.516Z,97.08
2017-11-20T19:32:52.090Z,97.45